^^
Saratoga-Weather Station Historical Data
Daily Summary for August 15, 2022 Units:  Both    English   Metric
Daily Weekly Monthly Yearly Custom
  High: Low: Average:
Temperature: 79.5 °F /  26.4 °C 63.1 °F /  17.3 °C 69.4 °F /  20.8 °C
Dew Point: 65.3 °F /  18.5 °C 56.3 °F /  13.5 °C 61.3 °F /  16.3 °C
Humidity: 93% 47% 77%
Wind Speed: 12mph /  19.3km/h - 2.2mph /  3.5km/h
Wind Gust: 13mph /  20.9km/h - -
Wind- - WSW
Pressure: 29.7 in /  1006.8 hPa 29.7 in /  1004.1 hPa -
Precipitation: 0.16 in /  4.1 mm    
Historical Graphs
 
 
Tabular Data for August 15, 2022
Time Temperature Dew Point Pressure Wind Wind Speed Wind Gust Humidity Rainfall Rate (Hourly) solar
00:00 70.9 °F /  21.6 °C 60.3 °F /  15.7 °C 29.7in /  1004.7hPa NW 2.9mph /  4.7km/h 12mph /  19.3km/h 69% 0in /  0.0mm 0 W/m2
00:05 70.9 °F /  21.6 °C 60.3 °F /  15.7 °C 29.7in /  1004.7hPa West 8.9mph /  14.3km/h 9mph /  14.5km/h 69% 0in /  0.0mm 0 W/m2
00:10 70.9 °F /  21.6 °C 60.3 °F /  15.7 °C 29.7in /  1004.7hPa NW 2.9mph /  4.7km/h 12mph /  19.3km/h 69% 0in /  0.0mm 0 W/m2
00:15 70.5 °F /  21.4 °C 60.3 °F /  15.7 °C 29.7in /  1004.7hPa West 8.1mph /  13km/h 9mph /  14.5km/h 70% 0in /  0.0mm 0 W/m2
00:20 70.5 °F /  21.4 °C 60.6 °F /  15.9 °C 29.7in /  1004.7hPa West 4mph /  6.4km/h 5mph /  8km/h 71% 0in /  0.0mm 0 W/m2
00:25 70.5 °F /  21.4 °C 60.6 °F /  15.9 °C 29.7in /  1004.7hPa SW 4mph /  6.4km/h 10mph /  16.1km/h 71% 0in /  0.0mm 0 W/m2
00:30 70.5 °F /  21.4 °C 60.6 °F /  15.9 °C 29.7in /  1004.7hPa WSW 8.1mph /  13km/h 11mph /  17.7km/h 71% 0in /  0.0mm 0 W/m2
00:35 70.3 °F /  21.3 °C 60.4 °F /  15.8 °C 29.7in /  1004.7hPa WNW 6.9mph /  11.1km/h 12mph /  19.3km/h 71% 0in /  0.0mm 0 W/m2
00:40 70.3 °F /  21.3 °C 60.4 °F /  15.8 °C 29.7in /  1004.7hPa WNW 2.9mph /  4.7km/h 10mph /  16.1km/h 71% 0in /  0.0mm 0 W/m2
00:45 70.3 °F /  21.3 °C 60.8 °F /  16 °C 29.7in /  1004.7hPa West 10.1mph /  16.3km/h 12mph /  19.3km/h 72% 0in /  0.0mm 0 W/m2
00:50 70.2 °F /  21.2 °C 60.6 °F /  15.9 °C 29.7in /  1004.7hPa WNW 8.9mph /  14.3km/h 9mph /  14.5km/h 72% 0in /  0.0mm 0 W/m2
00:55 70.2 °F /  21.2 °C 60.6 °F /  15.9 °C 29.7in /  1004.7hPa West 2.9mph /  4.7km/h 11mph /  17.7km/h 72% 0in /  0.0mm 0 W/m2
01:00 70.2 °F /  21.2 °C 60.6 °F /  15.9 °C 29.7in /  1004.7hPa WNW 4mph /  6.4km/h 13mph /  20.9km/h 72% 0in /  0.0mm 0 W/m2
01:05 70.2 °F /  21.2 °C 60.6 °F /  15.9 °C 29.7in /  1004.7hPa West 2mph /  3.2km/h 7mph /  11.3km/h 72% 0in /  0.0mm 0 W/m2
01:10 70.2 °F /  21.2 °C 61.2 °F /  16.2 °C 29.7in /  1004.7hPa WSW 2.9mph /  4.7km/h 9mph /  14.5km/h 73% 0in /  0.0mm 0 W/m2
01:15 70 °F /  21.1 °C 61 °F /  16.1 °C 29.7in /  1004.7hPa WNW 2mph /  3.2km/h 4mph /  6.4km/h 73% 0in /  0.0mm 0 W/m2
01:20 70 °F /  21.1 °C 61.3 °F /  16.3 °C 29.7in /  1005.1hPa WSW 0.9mph /  1.4km/h 4mph /  6.4km/h 74% 0in /  0.0mm 0 W/m2
01:25 70 °F /  21.1 °C 61.3 °F /  16.3 °C 29.7in /  1005.1hPa NNW 2mph /  3.2km/h 4mph /  6.4km/h 74% 0in /  0.0mm 0 W/m2
01:30 69.8 °F /  21 °C 61.2 °F /  16.2 °C 29.7in /  1005.1hPa North 0.9mph /  1.4km/h 2mph /  3.2km/h 74% 0in /  0.0mm 0 W/m2
01:35 69.6 °F /  20.9 °C 61.3 °F /  16.3 °C 29.7in /  1004.7hPa Calm   4mph /  6.4km/h 75% 0in /  0.0mm 0 W/m2
01:40 69.6 °F /  20.9 °C 61.3 °F /  16.3 °C 29.7in /  1004.7hPa North 0.9mph /  1.4km/h 3mph /  4.8km/h 75% 0in /  0.0mm 0 W/m2
01:45 69.6 °F /  20.9 °C 61.3 °F /  16.3 °C 29.7in /  1004.7hPa Calm   2mph /  3.2km/h 75% 0in /  0.0mm 0 W/m2
01:50 69.4 °F /  20.8 °C 61.5 °F /  16.4 °C 29.7in /  1004.7hPa Calm   1mph /  1.6km/h 76% 0in /  0.0mm 0 W/m2
01:55 69.4 °F /  20.8 °C 61.5 °F /  16.4 °C 29.7in /  1004.7hPa Calm   2mph /  3.2km/h 76% 0in /  0.0mm 0 W/m2
02:00 69.3 °F /  20.7 °C 61.7 °F /  16.5 °C 29.7in /  1004.7hPa NE 2mph /  3.2km/h 3mph /  4.8km/h 77% 0in /  0.0mm 0 W/m2
02:05 69.3 °F /  20.7 °C 61.7 °F /  16.5 °C 29.7in /  1004.7hPa Calm   2mph /  3.2km/h 77% 0in /  0.0mm 0 W/m2
02:10 69.1 °F /  20.6 °C 61.5 °F /  16.4 °C 29.7in /  1004.7hPa NNW 0.9mph /  1.4km/h 2mph /  3.2km/h 77% 0in /  0.0mm 0 W/m2
02:15 68.7 °F /  20.4 °C 61.5 °F /  16.4 °C 29.7in /  1004.7hPa NNW 2.9mph /  4.7km/h 7mph /  11.3km/h 78% 0in /  0.0mm 0 W/m2
02:20 68.5 °F /  20.3 °C 61.7 °F /  16.5 °C 29.7in /  1004.7hPa WNW 6mph /  9.7km/h 7mph /  11.3km/h 79% 0in /  0.0mm 0 W/m2
02:25 68.2 °F /  20.1 °C 61.7 °F /  16.5 °C 29.7in /  1004.7hPa West 4mph /  6.4km/h 8mph /  12.9km/h 80% 0in /  0.0mm 0 W/m2
02:30 67.8 °F /  19.9 °C 61.3 °F /  16.3 °C 29.7in /  1004.7hPa Calm   5mph /  8km/h 80% 0in /  0.0mm 0 W/m2
02:35 67.6 °F /  19.8 °C 61.5 °F /  16.4 °C 29.7in /  1004.7hPa WNW 0.9mph /  1.4km/h 3mph /  4.8km/h 81% 0in /  0.0mm 0 W/m2
02:40 67.5 °F /  19.7 °C 61.3 °F /  16.3 °C 29.7in /  1004.7hPa NW 0.9mph /  1.4km/h 3mph /  4.8km/h 81% 0.01in /  0.2mm 0 W/m2
02:45 67.3 °F /  19.6 °C 61.5 °F /  16.4 °C 29.7in /  1004.7hPa WNW 2.9mph /  4.7km/h 4mph /  6.4km/h 82% 0.01in /  0.2mm 0 W/m2
02:50 66.9 °F /  19.4 °C 61.5 °F /  16.4 °C 29.7in /  1005.1hPa North 2.9mph /  4.7km/h 3mph /  4.8km/h 83% 0.01in /  0.2mm 0 W/m2
02:55 66.6 °F /  19.2 °C 61.5 °F /  16.4 °C 29.7in /  1005.1hPa Calm   3mph /  4.8km/h 84% 0.01in /  0.2mm 0 W/m2
03:00 66.4 °F /  19.1 °C 61.7 °F /  16.5 °C 29.7in /  1005.1hPa NW 2mph /  3.2km/h 2mph /  3.2km/h 85% 0.01in /  0.2mm 0 W/m2
03:05 66 °F /  18.9 °C 61.3 °F /  16.3 °C 29.7in /  1005.1hPa ESE 2mph /  3.2km/h 5mph /  8km/h 85% 0.02in /  0.5mm 0 W/m2
03:10 65.8 °F /  18.8 °C 61.5 °F /  16.4 °C 29.7in /  1005.1hPa NNW 2.9mph /  4.7km/h 4mph /  6.4km/h 86% 0.02in /  0.5mm 0 W/m2
03:15 65.7 °F /  18.7 °C 61.3 °F /  16.3 °C 29.7in /  1005.1hPa North 0.9mph /  1.4km/h 2mph /  3.2km/h 86% 0.02in /  0.5mm 0 W/m2
03:20 65.5 °F /  18.6 °C 61.5 °F /  16.4 °C 29.7in /  1004.7hPa West 2.9mph /  4.7km/h 6mph /  9.7km/h 87% 0.03in /  0.8mm 0 W/m2
03:25 65.1 °F /  18.4 °C 61.5 °F /  16.4 °C 29.7in /  1005.1hPa SW 4mph /  6.4km/h 7mph /  11.3km/h 88% 0.03in /  0.8mm 0 W/m2
03:30 64.9 °F /  18.3 °C 61.3 °F /  16.3 °C 29.7in /  1005.1hPa NW 2.9mph /  4.7km/h 6mph /  9.7km/h 88% 0.04in /  1.0mm 0 W/m2
03:35 64.9 °F /  18.3 °C 61.7 °F /  16.5 °C 29.7in /  1005.1hPa West 2.9mph /  4.7km/h 8mph /  12.9km/h 89% 0.05in /  1.3mm 0 W/m2
03:40 64.8 °F /  18.2 °C 61.5 °F /  16.4 °C 29.7in /  1005.1hPa WNW 2mph /  3.2km/h 6mph /  9.7km/h 89% 0.04in /  1.0mm 0 W/m2
03:45 64.8 °F /  18.2 °C 61.5 °F /  16.4 °C 29.7in /  1005.1hPa WSW 4mph /  6.4km/h 6mph /  9.7km/h 89% 0.04in /  1.0mm 0 W/m2
03:50 64.6 °F /  18.1 °C 61.5 °F /  16.4 °C 29.7in /  1005.1hPa WSW 0.9mph /  1.4km/h 4mph /  6.4km/h 90% 0.05in /  1.3mm 0 W/m2
03:55 64.6 °F /  18.1 °C 61.5 °F /  16.4 °C 29.7in /  1005.1hPa WSW 2.9mph /  4.7km/h 4mph /  6.4km/h 90% 0.05in /  1.3mm 0 W/m2
04:00 64.6 °F /  18.1 °C 61.5 °F /  16.4 °C 29.7in /  1004.7hPa North 0.9mph /  1.4km/h 4mph /  6.4km/h 90% 0.06in /  1.5mm 0 W/m2
04:06 64.6 °F /  18.1 °C 61.5 °F /  16.4 °C 29.7in /  1005.1hPa East 4.9mph /  7.9km/h 7mph /  11.3km/h 90% 0.05in /  1.3mm 0 W/m2
04:11 64.4 °F /  18 °C 61.3 °F /  16.3 °C 29.7in /  1005.1hPa WNW 6mph /  9.7km/h 6mph /  9.7km/h 90% 0.06in /  1.5mm 0 W/m2
04:16 64.2 °F /  17.9 °C 61.2 °F /  16.2 °C 29.7in /  1004.7hPa SW 2mph /  3.2km/h 7mph /  11.3km/h 90% 0.05in /  1.3mm 0 W/m2
04:21 64.2 °F /  17.9 °C 61.5 °F /  16.4 °C 29.7in /  1005.1hPa West 2mph /  3.2km/h 5mph /  8km/h 91% 0.05in /  1.3mm 0 W/m2
04:26 64.2 °F /  17.9 °C 61.5 °F /  16.4 °C 29.7in /  1005.1hPa West 6mph /  9.7km/h 8mph /  12.9km/h 91% 0.05in /  1.3mm 0 W/m2
04:31 64.2 °F /  17.9 °C 61.5 °F /  16.4 °C 29.7in /  1005.1hPa WSW 2mph /  3.2km/h 6mph /  9.7km/h 91% 0.05in /  1.3mm 0 W/m2
04:36 64.2 °F /  17.9 °C 61.5 °F /  16.4 °C 29.7in /  1004.7hPa WNW 0.9mph /  1.4km/h 2mph /  3.2km/h 91% 0.04in /  1.0mm 0 W/m2
04:41 64.2 °F /  17.9 °C 61.5 °F /  16.4 °C 29.7in /  1005.1hPa WSW 0.9mph /  1.4km/h 2mph /  3.2km/h 91% 0.05in /  1.3mm 0 W/m2
04:46 64 °F /  17.8 °C 61.3 °F /  16.3 °C 29.7in /  1005.1hPa West 2mph /  3.2km/h 3mph /  4.8km/h 91% 0.05in /  1.3mm 0 W/m2
04:51 64 °F /  17.8 °C 61.3 °F /  16.3 °C 29.7in /  1005.1hPa West 0.9mph /  1.4km/h 6mph /  9.7km/h 91% 0.05in /  1.3mm 0 W/m2
04:56 64 °F /  17.8 °C 61.7 °F /  16.5 °C 29.7in /  1005.1hPa Calm   4mph /  6.4km/h 92% 0.05in /  1.3mm 0 W/m2
05:01 64 °F /  17.8 °C 61.7 °F /  16.5 °C 29.7in /  1005.1hPa WSW 2mph /  3.2km/h 8mph /  12.9km/h 92% 0.05in /  1.3mm 0 W/m2
05:06 64 °F /  17.8 °C 61.7 °F /  16.5 °C 29.7in /  1005.1hPa West 0.9mph /  1.4km/h 5mph /  8km/h 92% 0.05in /  1.3mm 0 W/m2
05:11 63.9 °F /  17.7 °C 61.5 °F /  16.4 °C 29.7in /  1005.1hPa WNW 4.9mph /  7.9km/h 8mph /  12.9km/h 92% 0.05in /  1.3mm 0 W/m2
05:16 63.9 °F /  17.7 °C 61.5 °F /  16.4 °C 29.7in /  1004.7hPa WNW 2.9mph /  4.7km/h 8mph /  12.9km/h 92% 0.05in /  1.3mm 0 W/m2
05:21 63.9 °F /  17.7 °C 61.5 °F /  16.4 °C 29.7in /  1004.7hPa WSW 2mph /  3.2km/h 3mph /  4.8km/h 92% 0.05in /  1.3mm 0 W/m2
05:26 63.9 °F /  17.7 °C 61.5 °F /  16.4 °C 29.7in /  1004.7hPa West 0.9mph /  1.4km/h 8mph /  12.9km/h 92% 0.06in /  1.5mm 0 W/m2
05:31 63.9 °F /  17.7 °C 61.5 °F /  16.4 °C 29.7in /  1004.7hPa West 0.9mph /  1.4km/h 3mph /  4.8km/h 92% 0.05in /  1.3mm 0 W/m2
05:36 63.9 °F /  17.7 °C 61.5 °F /  16.4 °C 29.7in /  1004.7hPa WSW 4.9mph /  7.9km/h 5mph /  8km/h 92% 0.06in /  1.5mm 0 W/m2
05:41 63.9 °F /  17.7 °C 61.5 °F /  16.4 °C 29.7in /  1004.7hPa WSW 4mph /  6.4km/h 4mph /  6.4km/h 92% 0.05in /  1.3mm 0 W/m2
05:46 63.9 °F /  17.7 °C 61.5 °F /  16.4 °C 29.7in /  1004.7hPa West 2.9mph /  4.7km/h 8mph /  12.9km/h 92% 0.05in /  1.3mm 0 W/m2
05:51 63.7 °F /  17.6 °C 61.7 °F /  16.5 °C 29.7in /  1004.7hPa West 2mph /  3.2km/h 3mph /  4.8km/h 93% 0.04in /  1.0mm 0 W/m2
05:56 63.7 °F /  17.6 °C 61.7 °F /  16.5 °C 29.7in /  1004.7hPa West 2mph /  3.2km/h 8mph /  12.9km/h 93% 0.05in /  1.3mm 0 W/m2
06:01 63.7 °F /  17.6 °C 61.7 °F /  16.5 °C 29.7in /  1004.7hPa WSW 4.9mph /  7.9km/h 6mph /  9.7km/h 93% 0.04in /  1.0mm 0 W/m2
06:06 63.7 °F /  17.6 °C 61.7 °F /  16.5 °C 29.7in /  1004.7hPa WNW 4mph /  6.4km/h 8mph /  12.9km/h 93% 0.04in /  1.0mm 0 W/m2
06:11 63.7 °F /  17.6 °C 61.7 °F /  16.5 °C 29.7in /  1004.7hPa West 2mph /  3.2km/h 7mph /  11.3km/h 93% 0.03in /  0.8mm 0 W/m2
06:16 63.5 °F /  17.5 °C 61.5 °F /  16.4 °C 29.7in /  1004.7hPa WSW 4mph /  6.4km/h 6mph /  9.7km/h 93% 0.02in /  0.5mm 0 W/m2
06:21 63.3 °F /  17.4 °C 61.3 °F /  16.3 °C 29.7in /  1004.7hPa West 2.9mph /  4.7km/h 7mph /  11.3km/h 93% 0.02in /  0.5mm 0 W/m2
06:26 63.3 °F /  17.4 °C 61.3 °F /  16.3 °C 29.7in /  1004.7hPa West 4mph /  6.4km/h 4mph /  6.4km/h 93% 0.02in /  0.5mm 0 W/m2
06:31 63.3 °F /  17.4 °C 61.3 °F /  16.3 °C 29.7in /  1004.7hPa West 2mph /  3.2km/h 3mph /  4.8km/h 93% 0.02in /  0.5mm 0 W/m2
06:36 63.3 °F /  17.4 °C 61.3 °F /  16.3 °C 29.7in /  1004.7hPa West 0.9mph /  1.4km/h 3mph /  4.8km/h 93% 0.01in /  0.2mm 0 W/m2
06:41 63.3 °F /  17.4 °C 61.3 °F /  16.3 °C 29.7in /  1004.7hPa SW 4mph /  6.4km/h 6mph /  9.7km/h 93% 0.01in /  0.2mm 0 W/m2
06:46 63.1 °F /  17.3 °C 61.2 °F /  16.2 °C 29.7in /  1004.7hPa NW 2mph /  3.2km/h 4mph /  6.4km/h 93% 0.01in /  0.2mm 7 W/m2
06:51 63.3 °F /  17.4 °C 61.3 °F /  16.3 °C 29.7in /  1005.1hPa West 4mph /  6.4km/h 7mph /  11.3km/h 93% 0.02in /  0.5mm 9 W/m2
06:56 63.3 °F /  17.4 °C 61.3 °F /  16.3 °C 29.7in /  1004.7hPa West 0.9mph /  1.4km/h 6mph /  9.7km/h 93% 0.01in /  0.2mm 12 W/m2
07:01 63.3 °F /  17.4 °C 61.3 °F /  16.3 °C 29.7in /  1004.7hPa West 2.9mph /  4.7km/h 6mph /  9.7km/h 93% 0.01in /  0.2mm 18 W/m2
07:06 63.3 °F /  17.4 °C 61.3 °F /  16.3 °C 29.7in /  1004.7hPa WNW 0.9mph /  1.4km/h 2mph /  3.2km/h 93% 0.01in /  0.2mm 21 W/m2
07:11 63.5 °F /  17.5 °C 61.5 °F /  16.4 °C 29.7in /  1004.7hPa Calm   4mph /  6.4km/h 93% 0.01in /  0.2mm 28 W/m2
07:16 63.7 °F /  17.6 °C 61.7 °F /  16.5 °C 29.7in /  1004.7hPa Calm     93% 0.01in /  0.2mm 32 W/m2
07:21 63.7 °F /  17.6 °C 61.7 °F /  16.5 °C 29.7in /  1004.7hPa Calm   4mph /  6.4km/h 93% 0.01in /  0.2mm 35 W/m2
07:26 63.7 °F /  17.6 °C 61.7 °F /  16.5 °C 29.7in /  1004.7hPa Calm   1mph /  1.6km/h 93% 0.01in /  0.2mm 35 W/m2
07:31 63.7 °F /  17.6 °C 61.7 °F /  16.5 °C 29.7in /  1004.7hPa Calm   2mph /  3.2km/h 93% 0.01in /  0.2mm 33 W/m2
07:36 63.7 °F /  17.6 °C 61.7 °F /  16.5 °C 29.7in /  1004.7hPa Calm   2mph /  3.2km/h 93% 0.01in /  0.2mm 33 W/m2
07:41 63.7 °F /  17.6 °C 61.7 °F /  16.5 °C 29.7in /  1004.7hPa Calm   1mph /  1.6km/h 93% 0.01in /  0.2mm 37 W/m2
07:46 63.7 °F /  17.6 °C 61.7 °F /  16.5 °C 29.7in /  1004.7hPa West 0.9mph /  1.4km/h 3mph /  4.8km/h 93% 0.01in /  0.2mm 42 W/m2
07:51 63.7 °F /  17.6 °C 61.7 °F /  16.5 °C 29.7in /  1004.7hPa Calm   1mph /  1.6km/h 93% 0in /  0.0mm 47 W/m2
07:56 63.7 °F /  17.6 °C 61.7 °F /  16.5 °C 29.7in /  1004.7hPa Calm   1mph /  1.6km/h 93% 0in /  0.0mm 51 W/m2
08:01 63.9 °F /  17.7 °C 61.9 °F /  16.6 °C 29.7in /  1004.7hPa Calm   2mph /  3.2km/h 93% 0in /  0.0mm 54 W/m2
08:06 63.9 °F /  17.7 °C 61.9 °F /  16.6 °C 29.7in /  1004.7hPa NW 0.9mph /  1.4km/h 2mph /  3.2km/h 93% 0in /  0.0mm 54 W/m2
08:11 64 °F /  17.8 °C 62.1 °F /  16.7 °C 29.7in /  1004.7hPa NW 0.9mph /  1.4km/h 2mph /  3.2km/h 93% 0in /  0.0mm 49 W/m2
08:16 64 °F /  17.8 °C 62.1 °F /  16.7 °C 29.7in /  1004.7hPa NW 0.9mph /  1.4km/h 1mph /  1.6km/h 93% 0in /  0.0mm 47 W/m2
08:21 64 °F /  17.8 °C 62.1 °F /  16.7 °C 29.7in /  1004.7hPa Calm   1mph /  1.6km/h 93% 0in /  0.0mm 49 W/m2
08:26 64 °F /  17.8 °C 61.7 °F /  16.5 °C 29.7in /  1004.7hPa West 2mph /  3.2km/h 2mph /  3.2km/h 92% 0in /  0.0mm 56 W/m2
08:31 64 °F /  17.8 °C 61.7 °F /  16.5 °C 29.7in /  1004.7hPa Calm   2mph /  3.2km/h 92% 0in /  0.0mm 62 W/m2
08:36 64 °F /  17.8 °C 61.7 °F /  16.5 °C 29.7in /  1004.7hPa Calm   2mph /  3.2km/h 92% 0in /  0.0mm 65 W/m2
08:41 64.2 °F /  17.9 °C 61.9 °F /  16.6 °C 29.7in /  1004.7hPa West 2mph /  3.2km/h 2mph /  3.2km/h 92% 0in /  0.0mm 69 W/m2
08:46 64.2 °F /  17.9 °C 61.9 °F /  16.6 °C 29.7in /  1004.7hPa South 0.9mph /  1.4km/h 1mph /  1.6km/h 92% 0in /  0.0mm 74 W/m2
08:51 64.2 °F /  17.9 °C 61.9 °F /  16.6 °C 29.7in /  1004.7hPa West 2mph /  3.2km/h 2mph /  3.2km/h 92% 0in /  0.0mm 84 W/m2
08:56 64.2 °F /  17.9 °C 61.9 °F /  16.6 °C 29.7in /  1004.7hPa Calm   3mph /  4.8km/h 92% 0in /  0.0mm 100 W/m2
09:01 64.4 °F /  18 °C 62.4 °F /  16.9 °C 29.7in /  1004.7hPa Calm   1mph /  1.6km/h 93% 0in /  0.0mm 109 W/m2
09:06 64.6 °F /  18.1 °C 62.4 °F /  16.9 °C 29.7in /  1004.7hPa SW 2mph /  3.2km/h 3mph /  4.8km/h 93% 0in /  0.0mm 120 W/m2
09:11 64.6 °F /  18.1 °C 62.2 °F /  16.8 °C 29.7in /  1004.7hPa Calm   2mph /  3.2km/h 92% 0in /  0.0mm 132 W/m2
09:16 64.8 °F /  18.2 °C 62.4 °F /  16.9 °C 29.7in /  1004.7hPa Calm   1mph /  1.6km/h 92% 0in /  0.0mm 139 W/m2
09:21 64.8 °F /  18.2 °C 62.4 °F /  16.9 °C 29.7in /  1004.7hPa NNW 0.9mph /  1.4km/h 1mph /  1.6km/h 92% 0in /  0.0mm 127 W/m2
09:26 64.8 °F /  18.2 °C 62.4 °F /  16.9 °C 29.7in /  1004.7hPa West 2mph /  3.2km/h 2mph /  3.2km/h 92% 0in /  0.0mm 120 W/m2
09:31 64.9 °F /  18.3 °C 62.6 °F /  17 °C 29.7in /  1004.7hPa West 0.9mph /  1.4km/h 2mph /  3.2km/h 92% 0in /  0.0mm 118 W/m2
09:36 64.9 °F /  18.3 °C 62.6 °F /  17 °C 29.7in /  1004.7hPa NE 0.9mph /  1.4km/h 3mph /  4.8km/h 92% 0in /  0.0mm 113 W/m2
09:41 64.9 °F /  18.3 °C 62.6 °F /  17 °C 29.7in /  1004.7hPa Calm     92% 0in /  0.0mm 109 W/m2
09:46 64.9 °F /  18.3 °C 62.6 °F /  17 °C 29.7in /  1004.7hPa Calm   1mph /  1.6km/h 92% 0in /  0.0mm 113 W/m2
09:51 65.1 °F /  18.4 °C 62.8 °F /  17.1 °C 29.7in /  1004.7hPa Calm   2mph /  3.2km/h 92% 0in /  0.0mm 116 W/m2
09:56 65.1 °F /  18.4 °C 62.8 °F /  17.1 °C 29.7in /  1004.7hPa Calm   1mph /  1.6km/h 92% 0in /  0.0mm 121 W/m2
10:01 65.3 °F /  18.5 °C 62.6 °F /  17 °C 29.7in /  1004.7hPa Calm     91% 0in /  0.0mm 134 W/m2
10:06 65.5 °F /  18.6 °C 62.8 °F /  17.1 °C 29.7in /  1004.7hPa Calm   1mph /  1.6km/h 91% 0in /  0.0mm 139 W/m2
10:11 65.7 °F /  18.7 °C 63 °F /  17.2 °C 29.7in /  1005.1hPa Calm   2mph /  3.2km/h 91% 0in /  0.0mm 148 W/m2
10:16 65.8 °F /  18.8 °C 63.1 °F /  17.3 °C 29.7in /  1005.1hPa NNE 0.9mph /  1.4km/h 4mph /  6.4km/h 91% 0in /  0.0mm 167 W/m2
10:21 65.8 °F /  18.8 °C 63.1 °F /  17.3 °C 29.7in /  1005.1hPa WSW 2mph /  3.2km/h 4mph /  6.4km/h 91% 0in /  0.0mm 197 W/m2
10:26 65.8 °F /  18.8 °C 63.1 °F /  17.3 °C 29.7in /  1005.1hPa WNW 4mph /  6.4km/h 4mph /  6.4km/h 91% 0in /  0.0mm 204 W/m2
10:31 65.8 °F /  18.8 °C 62.8 °F /  17.1 °C 29.7in /  1005.1hPa WNW 2.9mph /  4.7km/h 6mph /  9.7km/h 90% 0in /  0.0mm 260 W/m2
10:36 66 °F /  18.9 °C 63 °F /  17.2 °C 29.7in /  1005.1hPa North 2.9mph /  4.7km/h 6mph /  9.7km/h 90% 0in /  0.0mm 309 W/m2
10:41 66.4 °F /  19.1 °C 63.3 °F /  17.4 °C 29.7in /  1005.1hPa North 0.9mph /  1.4km/h 4mph /  6.4km/h 90% 0in /  0.0mm 302 W/m2
10:46 66.7 °F /  19.3 °C 63.3 °F /  17.4 °C 29.7in /  1005.1hPa East 2mph /  3.2km/h 3mph /  4.8km/h 89% 0in /  0.0mm 325 W/m2
10:51 67.1 °F /  19.5 °C 63.7 °F /  17.6 °C 29.7in /  1005.1hPa West 4mph /  6.4km/h 7mph /  11.3km/h 89% 0in /  0.0mm 455 W/m2
10:56 67.6 °F /  19.8 °C 64 °F /  17.8 °C 29.7in /  1005.1hPa Calm   3mph /  4.8km/h 88% 0in /  0.0mm 524 W/m2
11:01 67.8 °F /  19.9 °C 64.2 °F /  17.9 °C 29.7in /  1005.1hPa SE 0.9mph /  1.4km/h 4mph /  6.4km/h 88% 0in /  0.0mm 471 W/m2
11:06 68.5 °F /  20.3 °C 64.6 °F /  18.1 °C 29.7in /  1005.1hPa WNW 2mph /  3.2km/h 3mph /  4.8km/h 87% 0in /  0.0mm 466 W/m2
11:12 69.3 °F /  20.7 °C 64.9 °F /  18.3 °C 29.7in /  1005.1hPa WNW 4mph /  6.4km/h 6mph /  9.7km/h 86% 0in /  0.0mm 814 W/m2
11:17 69.6 °F /  20.9 °C 64.9 °F /  18.3 °C 29.7in /  1005.1hPa West 8.1mph /  13km/h 9mph /  14.5km/h 85% 0in /  0.0mm 308 W/m2
11:22 69.4 °F /  20.8 °C 64.4 °F /  18 °C 29.7in /  1005.1hPa Calm   3mph /  4.8km/h 84% 0in /  0.0mm 262 W/m2
11:27 69.8 °F /  21 °C 64.8 °F /  18.2 °C 29.7in /  1005.4hPa WSW 0.9mph /  1.4km/h 4mph /  6.4km/h 84% 0in /  0.0mm 322 W/m2
11:32 70.2 °F /  21.2 °C 65.1 °F /  18.4 °C 29.7in /  1005.4hPa ENE 2.9mph /  4.7km/h 4mph /  6.4km/h 84% 0in /  0.0mm 403 W/m2
11:37 70.5 °F /  21.4 °C 65.1 °F /  18.4 °C 29.7in /  1005.4hPa NW 0.9mph /  1.4km/h 4mph /  6.4km/h 83% 0in /  0.0mm 432 W/m2
11:42 70.9 °F /  21.6 °C 65.1 °F /  18.4 °C 29.7in /  1005.4hPa NNW 2.9mph /  4.7km/h 4mph /  6.4km/h 82% 0in /  0.0mm 434 W/m2
11:47 70.5 °F /  21.4 °C 64.8 °F /  18.2 °C 29.7in /  1005.1hPa East 2mph /  3.2km/h 5mph /  8km/h 82% 0in /  0.0mm 304 W/m2
11:52 70.5 °F /  21.4 °C 65.1 °F /  18.4 °C 29.7in /  1005.1hPa WNW 0.9mph /  1.4km/h 4mph /  6.4km/h 83% 0in /  0.0mm 775 W/m2
11:57 71.1 °F /  21.7 °C 65.3 °F /  18.5 °C 29.7in /  1005.1hPa WSW 4mph /  6.4km/h 8mph /  12.9km/h 82% 0in /  0.0mm 849 W/m2
12:02 71.2 °F /  21.8 °C 65.1 °F /  18.4 °C 29.7in /  1005.1hPa West 2.9mph /  4.7km/h 5mph /  8km/h 81% 0in /  0.0mm 306 W/m2
12:07 71.4 °F /  21.9 °C 65.3 °F /  18.5 °C 29.7in /  1005.1hPa WSW 2.9mph /  4.7km/h 4mph /  6.4km/h 81% 0in /  0.0mm 323 W/m2
12:12 71.8 °F /  22.1 °C 64.9 °F /  18.3 °C 29.7in /  1005.1hPa WNW 4mph /  6.4km/h 8mph /  12.9km/h 79% 0in /  0.0mm 257 W/m2
12:17 72 °F /  22.2 °C 65.1 °F /  18.4 °C 29.7in /  1005.1hPa WNW 0.9mph /  1.4km/h 8mph /  12.9km/h 79% 0in /  0.0mm 605 W/m2
12:22 72.1 °F /  22.3 °C 63.9 °F /  17.7 °C 29.7in /  1005.1hPa NNW 0.9mph /  1.4km/h 6mph /  9.7km/h 75% 0in /  0.0mm 197 W/m2
12:27 72.1 °F /  22.3 °C 64.2 °F /  17.9 °C 29.7in /  1005.1hPa WNW 4mph /  6.4km/h 7mph /  11.3km/h 76% 0in /  0.0mm 823 W/m2
12:32 72.9 °F /  22.7 °C 64.4 °F /  18 °C 29.7in /  1004.7hPa WSW 4mph /  6.4km/h 6mph /  9.7km/h 75% 0in /  0.0mm 802 W/m2
12:37 73.4 °F /  23 °C 64.6 °F /  18.1 °C 29.7in /  1004.7hPa West 6mph /  9.7km/h 8mph /  12.9km/h 74% 0in /  0.0mm 793 W/m2
12:42 73.9 °F /  23.3 °C 64.4 °F /  18 °C 29.7in /  1004.7hPa SSW 2.9mph /  4.7km/h 7mph /  11.3km/h 72% 0in /  0.0mm 816 W/m2
12:47 74.1 °F /  23.4 °C 64 °F /  17.8 °C 29.7in /  1004.7hPa WNW 6mph /  9.7km/h 8mph /  12.9km/h 71% 0in /  0.0mm 840 W/m2
12:52 74.3 °F /  23.5 °C 63.9 °F /  17.7 °C 29.7in /  1004.7hPa NW 2mph /  3.2km/h 7mph /  11.3km/h 70% 0in /  0.0mm 828 W/m2
12:57 74.7 °F /  23.7 °C 62.6 °F /  17 °C 29.7in /  1004.7hPa NW 6mph /  9.7km/h 10mph /  16.1km/h 66% 0in /  0.0mm 846 W/m2
13:02 74.7 °F /  23.7 °C 61.7 °F /  16.5 °C 29.7in /  1004.4hPa WNW 6.9mph /  11.1km/h 10mph /  16.1km/h 64% 0in /  0.0mm 274 W/m2
13:07 74.7 °F /  23.7 °C 62.1 °F /  16.7 °C 29.7in /  1004.4hPa WNW 4.9mph /  7.9km/h 9mph /  14.5km/h 65% 0in /  0.0mm 288 W/m2
13:12 74.3 °F /  23.5 °C 61.3 °F /  16.3 °C 29.7in /  1004.4hPa NW 2mph /  3.2km/h 4mph /  6.4km/h 64% 0in /  0.0mm 856 W/m2
13:17 74.8 °F /  23.8 °C 61.9 °F /  16.6 °C 29.7in /  1004.4hPa WNW 2.9mph /  4.7km/h 9mph /  14.5km/h 64% 0in /  0.0mm 824 W/m2
13:22 75.6 °F /  24.2 °C 62.1 °F /  16.7 °C 29.7in /  1004.4hPa North 2.9mph /  4.7km/h 7mph /  11.3km/h 63% 0in /  0.0mm 800 W/m2
13:27 75.9 °F /  24.4 °C 62.4 °F /  16.9 °C 29.7in /  1004.1hPa West 0.9mph /  1.4km/h 2mph /  3.2km/h 63% 0in /  0.0mm 800 W/m2
13:32 76.8 °F /  24.9 °C 62.4 °F /  16.9 °C 29.7in /  1004.1hPa WSW 4.9mph /  7.9km/h 5mph /  8km/h 61% 0in /  0.0mm 793 W/m2
13:37 77.4 °F /  25.2 °C 61.9 °F /  16.6 °C 29.7in /  1004.1hPa West 4mph /  6.4km/h 7mph /  11.3km/h 59% 0in /  0.0mm 788 W/m2
13:42 76.8 °F /  24.9 °C 61.3 °F /  16.3 °C 29.7in /  1004.1hPa NW 4.9mph /  7.9km/h 5mph /  8km/h 59% 0in /  0.0mm 789 W/m2
13:47 76.8 °F /  24.9 °C 61.3 °F /  16.3 °C 29.7in /  1004.1hPa NW 0.9mph /  1.4km/h 4mph /  6.4km/h 59% 0in /  0.0mm 791 W/m2
13:52 77.2 °F /  25.1 °C 60.8 °F /  16 °C 29.7in /  1004.1hPa West 6.9mph /  11.1km/h 7mph /  11.3km/h 57% 0in /  0.0mm 805 W/m2
13:57 77 °F /  25 °C 59 °F /  15 °C 29.7in /  1004.1hPa NW 0.9mph /  1.4km/h 6mph /  9.7km/h 54% 0in /  0.0mm 802 W/m2
14:02 77.4 °F /  25.2 °C 59.4 °F /  15.2 °C 29.7in /  1004.1hPa ENE 2mph /  3.2km/h 5mph /  8km/h 54% 0in /  0.0mm 800 W/m2
14:07 77.7 °F /  25.4 °C 59.2 °F /  15.1 °C 29.7in /  1004.1hPa NW 4mph /  6.4km/h 8mph /  12.9km/h 53% 0in /  0.0mm 802 W/m2
14:12 78.1 °F /  25.6 °C 58.5 °F /  14.7 °C 29.7in /  1004.1hPa West 2.9mph /  4.7km/h 8mph /  12.9km/h 51% 0in /  0.0mm 809 W/m2
14:17 78.3 °F /  25.7 °C 59.2 °F /  15.1 °C 29.7in /  1004.1hPa East 8.1mph /  13km/h 9mph /  14.5km/h 52% 0in /  0.0mm 807 W/m2
14:22 78.4 °F /  25.8 °C 57.7 °F /  14.3 °C 29.7in /  1004.1hPa WNW 2.9mph /  4.7km/h 11mph /  17.7km/h 49% 0in /  0.0mm 809 W/m2
14:27 78.1 °F /  25.6 °C 57.4 °F /  14.1 °C 29.7in /  1004.1hPa SE 4mph /  6.4km/h 4mph /  6.4km/h 49% 0in /  0.0mm 740 W/m2
14:32 78.4 °F /  25.8 °C 58.3 °F /  14.6 °C 29.7in /  1004.4hPa Calm   5mph /  8km/h 50% 0in /  0.0mm 865 W/m2
14:37 78.6 °F /  25.9 °C 57.9 °F /  14.4 °C 29.7in /  1004.4hPa North 2.9mph /  4.7km/h 10mph /  16.1km/h 49% 0in /  0.0mm 893 W/m2
14:42 78.3 °F /  25.7 °C 56.3 °F /  13.5 °C 29.7in /  1004.4hPa SSE 4mph /  6.4km/h 7mph /  11.3km/h 47% 0in /  0.0mm 744 W/m2
14:47 78.1 °F /  25.6 °C 56.8 °F /  13.8 °C 29.7in /  1004.4hPa NW 6.9mph /  11.1km/h 13mph /  20.9km/h 48% 0in /  0.0mm 977 W/m2
14:52 78.3 °F /  25.7 °C 58.1 °F /  14.5 °C 29.7in /  1004.7hPa NNE 2.9mph /  4.7km/h 12mph /  19.3km/h 50% 0in /  0.0mm 926 W/m2
14:57 78.3 °F /  25.7 °C 58.1 °F /  14.5 °C 29.7in /  1004.4hPa West 2.9mph /  4.7km/h 13mph /  20.9km/h 50% 0in /  0.0mm 937 W/m2
15:02 78.1 °F /  25.6 °C 57.4 °F /  14.1 °C 29.7in /  1004.4hPa West 10.1mph /  16.3km/h 12mph /  19.3km/h 49% 0in /  0.0mm 939 W/m2
15:07 77.9 °F /  25.5 °C 58.3 °F /  14.6 °C 29.7in /  1004.4hPa West 2mph /  3.2km/h 3mph /  4.8km/h 51% 0in /  0.0mm 949 W/m2
15:12 78.3 °F /  25.7 °C 57.6 °F /  14.2 °C 29.7in /  1004.4hPa NNW 2.9mph /  4.7km/h 12mph /  19.3km/h 49% 0in /  0.0mm 329 W/m2
15:17 77.4 °F /  25.2 °C 57.2 °F /  14 °C 29.7in /  1004.4hPa West 2.9mph /  4.7km/h 10mph /  16.1km/h 50% 0in /  0.0mm 334 W/m2
15:22 77 °F /  25 °C 57.6 °F /  14.2 °C 29.7in /  1004.7hPa NNW 12mph /  19.3km/h 12mph /  19.3km/h 51% 0in /  0.0mm 371 W/m2
15:27 76.8 °F /  24.9 °C 57.4 °F /  14.1 °C 29.7in /  1004.4hPa WNW 6mph /  9.7km/h 9mph /  14.5km/h 51% 0in /  0.0mm 882 W/m2
15:32 77.2 °F /  25.1 °C 58.6 °F /  14.8 °C 29.7in /  1004.4hPa ENE 2.9mph /  4.7km/h 7mph /  11.3km/h 53% 0in /  0.0mm 788 W/m2
15:37 77.7 °F /  25.4 °C 58.1 °F /  14.5 °C 29.7in /  1004.4hPa NNW 2mph /  3.2km/h 13mph /  20.9km/h 51% 0in /  0.0mm 752 W/m2
15:42 77.5 °F /  25.3 °C 56.3 °F /  13.5 °C 29.7in /  1004.7hPa NW 2.9mph /  4.7km/h 8mph /  12.9km/h 48% 0in /  0.0mm 731 W/m2
15:47 77.5 °F /  25.3 °C 57.4 °F /  14.1 °C 29.7in /  1004.4hPa East 2mph /  3.2km/h 7mph /  11.3km/h 50% 0in /  0.0mm 722 W/m2
15:52 77.7 °F /  25.4 °C 57 °F /  13.9 °C 29.7in /  1004.4hPa NE 0.9mph /  1.4km/h 7mph /  11.3km/h 49% 0in /  0.0mm 714 W/m2
15:57 77.9 °F /  25.5 °C 57.2 °F /  14 °C 29.7in /  1004.4hPa SSE 0.9mph /  1.4km/h 3mph /  4.8km/h 49% 0in /  0.0mm 705 W/m2
16:02 77.9 °F /  25.5 °C 56.7 °F /  13.7 °C 29.7in /  1004.4hPa WSW 8.1mph /  13km/h 8mph /  12.9km/h 48% 0in /  0.0mm 701 W/m2
16:07 78.1 °F /  25.6 °C 57.4 °F /  14.1 °C 29.7in /  1004.4hPa WSW 2mph /  3.2km/h 5mph /  8km/h 49% 0in /  0.0mm 714 W/m2
16:12 78.3 °F /  25.7 °C 57.6 °F /  14.2 °C 29.7in /  1004.4hPa NW 2mph /  3.2km/h 3mph /  4.8km/h 49% 0in /  0.0mm 700 W/m2
16:17 78.3 °F /  25.7 °C 57.6 °F /  14.2 °C 29.7in /  1004.4hPa NW 2mph /  3.2km/h 4mph /  6.4km/h 49% 0in /  0.0mm 679 W/m2
16:22 78.6 °F /  25.9 °C 57.9 °F /  14.4 °C 29.7in /  1004.4hPa ENE 0.9mph /  1.4km/h 2mph /  3.2km/h 49% 0in /  0.0mm 677 W/m2
16:27 79.2 °F /  26.2 °C 57.7 °F /  14.3 °C 29.7in /  1004.4hPa SW 6mph /  9.7km/h 6mph /  9.7km/h 48% 0in /  0.0mm 708 W/m2
16:32 79.5 °F /  26.4 °C 58.6 °F /  14.8 °C 29.7in /  1004.1hPa ENE 2.9mph /  4.7km/h 4mph /  6.4km/h 49% 0in /  0.0mm 693 W/m2
16:37 79.5 °F /  26.4 °C 58.1 °F /  14.5 °C 29.7in /  1004.1hPa West 2mph /  3.2km/h 5mph /  8km/h 48% 0in /  0.0mm 714 W/m2
16:42 79.5 °F /  26.4 °C 57.6 °F /  14.2 °C 29.7in /  1004.1hPa WSW 2mph /  3.2km/h 4mph /  6.4km/h 47% 0in /  0.0mm 468 W/m2
16:47 79.3 °F /  26.3 °C 57.4 °F /  14.1 °C 29.7in /  1004.1hPa NW 2.9mph /  4.7km/h 3mph /  4.8km/h 47% 0in /  0.0mm 309 W/m2
16:52 78.8 °F /  26 °C 57.4 °F /  14.1 °C 29.7in /  1004.1hPa NNW 4mph /  6.4km/h 5mph /  8km/h 48% 0in /  0.0mm 431 W/m2
16:57 78.4 °F /  25.8 °C 57.7 °F /  14.3 °C 29.7in /  1004.1hPa NNE 0.9mph /  1.4km/h 6mph /  9.7km/h 49% 0in /  0.0mm 204 W/m2
17:02 77.7 °F /  25.4 °C 57.6 °F /  14.2 °C 29.7in /  1004.1hPa NW 0.9mph /  1.4km/h 2mph /  3.2km/h 50% 0in /  0.0mm 165 W/m2
17:07 77.5 °F /  25.3 °C 57.9 °F /  14.4 °C 29.7in /  1004.1hPa NW 2.9mph /  4.7km/h 8mph /  12.9km/h 51% 0in /  0.0mm 130 W/m2
17:12 76.8 °F /  24.9 °C 58.5 °F /  14.7 °C 29.7in /  1004.4hPa SW 6.9mph /  11.1km/h 9mph /  14.5km/h 53% 0in /  0.0mm 107 W/m2
17:17 75.4 °F /  24.1 °C 60.1 °F /  15.6 °C 29.7in /  1004.4hPa WSW 6.9mph /  11.1km/h 13mph /  20.9km/h 59% 0in /  0.0mm 116 W/m2
17:22 73.8 °F /  23.2 °C 60.8 °F /  16 °C 29.7in /  1004.7hPa NW 2.9mph /  4.7km/h 12mph /  19.3km/h 64% 0in /  0.0mm 91 W/m2
17:27 72.3 °F /  22.4 °C 60.8 °F /  16 °C 29.7in /  1004.7hPa NW 2mph /  3.2km/h 13mph /  20.9km/h 67% 0in /  0.0mm 102 W/m2
17:32 71.8 °F /  22.1 °C 61.5 °F /  16.4 °C 29.7in /  1004.7hPa NE 2.9mph /  4.7km/h 4mph /  6.4km/h 70% 0in /  0.0mm 120 W/m2
17:37 71.2 °F /  21.8 °C 61.7 °F /  16.5 °C 29.7in /  1004.7hPa WNW 8.1mph /  13km/h 8mph /  12.9km/h 72% 0in /  0.0mm 118 W/m2
17:42 70.3 °F /  21.3 °C 61.7 °F /  16.5 °C 29.7in /  1004.7hPa NNW 4mph /  6.4km/h 8mph /  12.9km/h 74% 0in /  0.0mm 123 W/m2
17:47 70 °F /  21.1 °C 62.1 °F /  16.7 °C 29.7in /  1004.7hPa WNW 10.1mph /  16.3km/h 11mph /  17.7km/h 76% 0in /  0.0mm 118 W/m2
17:52 69.4 °F /  20.8 °C 61.5 °F /  16.4 °C 29.7in /  1004.7hPa WNW 0.9mph /  1.4km/h 7mph /  11.3km/h 76% 0in /  0.0mm 116 W/m2
17:57 69.4 °F /  20.8 °C 61.2 °F /  16.2 °C 29.7in /  1004.7hPa West 2mph /  3.2km/h 11mph /  17.7km/h 75% 0in /  0.0mm 116 W/m2
18:02 69.6 °F /  20.9 °C 61 °F /  16.1 °C 29.7in /  1004.7hPa WNW 2mph /  3.2km/h 3mph /  4.8km/h 74% 0in /  0.0mm 109 W/m2
18:07 70 °F /  21.1 °C 60.6 °F /  15.9 °C 29.7in /  1004.7hPa NNW 0.9mph /  1.4km/h 7mph /  11.3km/h 72% 0in /  0.0mm 125 W/m2
18:12 70.5 °F /  21.4 °C 61 °F /  16.1 °C 29.7in /  1004.7hPa NW 0.9mph /  1.4km/h 4mph /  6.4km/h 72% 0in /  0.0mm 128 W/m2
18:17 71.1 °F /  21.7 °C 60.4 °F /  15.8 °C 29.7in /  1004.7hPa NW 0.9mph /  1.4km/h 4mph /  6.4km/h 69% 0in /  0.0mm 139 W/m2
18:22 71.4 °F /  21.9 °C 60.8 °F /  16 °C 29.7in /  1004.7hPa NW 2mph /  3.2km/h 3mph /  4.8km/h 69% 0in /  0.0mm 120 W/m2
18:27 71.6 °F /  22 °C 60.4 °F /  15.8 °C 29.7in /  1004.4hPa WNW 0.9mph /  1.4km/h 7mph /  11.3km/h 68% 0in /  0.0mm 121 W/m2
18:32 71.8 °F /  22.1 °C 60.6 °F /  15.9 °C 29.7in /  1004.4hPa Calm   2mph /  3.2km/h 68% 0in /  0.0mm 411 W/m2
18:37 72.3 °F /  22.4 °C 61.2 °F /  16.2 °C 29.7in /  1004.4hPa NNW 2mph /  3.2km/h 7mph /  11.3km/h 68% 0in /  0.0mm 306 W/m2
18:42 72.3 °F /  22.4 °C 61.2 °F /  16.2 °C 29.7in /  1004.4hPa Calm   2mph /  3.2km/h 68% 0in /  0.0mm 121 W/m2
18:47 72.7 °F /  22.6 °C 61.5 °F /  16.4 °C 29.7in /  1004.4hPa WNW 0.9mph /  1.4km/h 4mph /  6.4km/h 68% 0in /  0.0mm 301 W/m2
18:52 73 °F /  22.8 °C 61.9 °F /  16.6 °C 29.7in /  1004.4hPa WNW 2mph /  3.2km/h 2mph /  3.2km/h 68% 0in /  0.0mm 292 W/m2
18:57 73.4 °F /  23 °C 62.2 °F /  16.8 °C 29.7in /  1004.4hPa West 2.9mph /  4.7km/h 3mph /  4.8km/h 68% 0in /  0.0mm 269 W/m2
19:02 73.8 °F /  23.2 °C 62.1 °F /  16.7 °C 29.7in /  1004.4hPa NW 2mph /  3.2km/h 3mph /  4.8km/h 67% 0in /  0.0mm 253 W/m2
19:07 73.8 °F /  23.2 °C 62.1 °F /  16.7 °C 29.7in /  1004.1hPa WNW 2mph /  3.2km/h 6mph /  9.7km/h 67% 0in /  0.0mm 225 W/m2
19:12 73.9 °F /  23.3 °C 62.8 °F /  17.1 °C 29.7in /  1004.1hPa NE 2mph /  3.2km/h 4mph /  6.4km/h 68% 0in /  0.0mm 139 W/m2
19:17 74.1 °F /  23.4 °C 62.4 °F /  16.9 °C 29.7in /  1004.4hPa SSW 0.9mph /  1.4km/h 4mph /  6.4km/h 67% 0in /  0.0mm 142 W/m2
19:22 74.1 °F /  23.4 °C 62.4 °F /  16.9 °C 29.7in /  1004.4hPa ENE 0.9mph /  1.4km/h 1mph /  1.6km/h 67% 0in /  0.0mm 49 W/m2
19:27 74.5 °F /  23.6 °C 62.4 °F /  16.9 °C 29.7in /  1004.4hPa Calm   3mph /  4.8km/h 66% 0in /  0.0mm 58 W/m2
19:32 74.5 °F /  23.6 °C 62.4 °F /  16.9 °C 29.7in /  1004.4hPa West 0.9mph /  1.4km/h 3mph /  4.8km/h 66% 0in /  0.0mm 63 W/m2
19:37 74.1 °F /  23.4 °C 62.1 °F /  16.7 °C 29.7in /  1004.4hPa NNE 0.9mph /  1.4km/h 3mph /  4.8km/h 66% 0in /  0.0mm 58 W/m2
19:42 74.1 °F /  23.4 °C 62.1 °F /  16.7 °C 29.7in /  1004.4hPa Calm   2mph /  3.2km/h 66% 0in /  0.0mm 51 W/m2
19:47 73.9 °F /  23.3 °C 61.9 °F /  16.6 °C 29.7in /  1004.4hPa Calm   3mph /  4.8km/h 66% 0in /  0.0mm 47 W/m2
19:52 73.8 °F /  23.2 °C 62.1 °F /  16.7 °C 29.7in /  1004.7hPa ENE 2.9mph /  4.7km/h 3mph /  4.8km/h 67% 0in /  0.0mm 42 W/m2
19:57 73.6 °F /  23.1 °C 61.5 °F /  16.4 °C 29.7in /  1004.7hPa East 0.9mph /  1.4km/h 4mph /  6.4km/h 66% 0in /  0.0mm 40 W/m2
20:02 73.2 °F /  22.9 °C 62.1 °F /  16.7 °C 29.7in /  1004.7hPa Calm   3mph /  4.8km/h 68% 0in /  0.0mm 32 W/m2
20:07 73 °F /  22.8 °C 61.5 °F /  16.4 °C 29.7in /  1004.7hPa Calm   4mph /  6.4km/h 67% 0in /  0.0mm 25 W/m2
20:12 72.9 °F /  22.7 °C 61.7 °F /  16.5 °C 29.7in /  1004.7hPa East 0.9mph /  1.4km/h 3mph /  4.8km/h 68% 0in /  0.0mm 18 W/m2
20:17 72.3 °F /  22.4 °C 61.5 °F /  16.4 °C 29.7in /  1005.1hPa East 2mph /  3.2km/h 4mph /  6.4km/h 69% 0in /  0.0mm 14 W/m2
20:22 71.6 °F /  22 °C 61.3 °F /  16.3 °C 29.7in /  1005.1hPa ENE 0.9mph /  1.4km/h 2mph /  3.2km/h 70% 0in /  0.0mm 12 W/m2
20:27 71.2 °F /  21.8 °C 61.7 °F /  16.5 °C 29.7in /  1005.1hPa NW 2mph /  3.2km/h 3mph /  4.8km/h 72% 0in /  0.0mm 9 W/m2
20:32 70.9 °F /  21.6 °C 61.9 °F /  16.6 °C 29.7in /  1005.1hPa West 2mph /  3.2km/h 2mph /  3.2km/h 73% 0in /  0.0mm 7 W/m2
20:37 70.3 °F /  21.3 °C 61.3 °F /  16.3 °C 29.7in /  1005.1hPa Calm   3mph /  4.8km/h 73% 0in /  0.0mm 5 W/m2
20:42 70.2 °F /  21.2 °C 61.5 °F /  16.4 °C 29.7in /  1005.4hPa Calm   2mph /  3.2km/h 74% 0in /  0.0mm 5 W/m2
20:47 70 °F /  21.1 °C 61.7 °F /  16.5 °C 29.7in /  1005.4hPa North 0.9mph /  1.4km/h 1mph /  1.6km/h 75% 0in /  0.0mm 0 W/m2
20:53 69.6 °F /  20.9 °C 61.3 °F /  16.3 °C 29.7in /  1005.4hPa Calm   1mph /  1.6km/h 75% 0in /  0.0mm 0 W/m2
20:58 69.4 °F /  20.8 °C 61.5 °F /  16.4 °C 29.7in /  1005.4hPa Calm     76% 0in /  0.0mm 0 W/m2
21:03 69.3 °F /  20.7 °C 61.7 °F /  16.5 °C 29.7in /  1005.4hPa Calm   2mph /  3.2km/h 77% 0in /  0.0mm 0 W/m2
21:08 68.9 °F /  20.5 °C 61.3 °F /  16.3 °C 29.7in /  1005.8hPa NW 0.9mph /  1.4km/h 2mph /  3.2km/h 77% 0in /  0.0mm 0 W/m2
21:13 68.7 °F /  20.4 °C 61.5 °F /  16.4 °C 29.7in /  1005.8hPa Calm   1mph /  1.6km/h 78% 0in /  0.0mm 0 W/m2
21:18 68.5 °F /  20.3 °C 61.7 °F /  16.5 °C 29.7in /  1005.8hPa NNW 2mph /  3.2km/h 3mph /  4.8km/h 79% 0in /  0.0mm 0 W/m2
21:23 68.5 °F /  20.3 °C 61.7 °F /  16.5 °C 29.7in /  1005.8hPa Calm   1mph /  1.6km/h 79% 0in /  0.0mm 0 W/m2
21:28 68.5 °F /  20.3 °C 61.7 °F /  16.5 °C 29.7in /  1006.1hPa Calm   2mph /  3.2km/h 79% 0in /  0.0mm 0 W/m2
21:33 68.4 °F /  20.2 °C 61.5 °F /  16.4 °C 29.7in /  1006.1hPa Calm     79% 0in /  0.0mm 0 W/m2
21:38 68.2 °F /  20.1 °C 61.7 °F /  16.5 °C 29.7in /  1006.1hPa Calm   2mph /  3.2km/h 80% 0in /  0.0mm 0 W/m2
21:43 68.2 °F /  20.1 °C 61.7 °F /  16.5 °C 29.7in /  1006.1hPa Calm   1mph /  1.6km/h 80% 0in /  0.0mm 0 W/m2
21:48 68 °F /  20 °C 61.9 °F /  16.6 °C 29.7in /  1006.1hPa NW 0.9mph /  1.4km/h 2mph /  3.2km/h 81% 0in /  0.0mm 0 W/m2
21:53 67.8 °F /  19.9 °C 62.1 °F /  16.7 °C 29.7in /  1006.1hPa WNW 0.9mph /  1.4km/h 3mph /  4.8km/h 82% 0in /  0.0mm 0 W/m2
21:58 67.8 °F /  19.9 °C 62.1 °F /  16.7 °C 29.7in /  1006.4hPa Calm     82% 0in /  0.0mm 0 W/m2
22:03 67.6 °F /  19.8 °C 62.2 °F /  16.8 °C 29.7in /  1006.4hPa WNW 0.9mph /  1.4km/h 4mph /  6.4km/h 83% 0in /  0.0mm 0 W/m2
22:08 67.5 °F /  19.7 °C 62.1 °F /  16.7 °C 29.7in /  1006.4hPa Calm   2mph /  3.2km/h 83% 0in /  0.0mm 0 W/m2
22:13 67.5 °F /  19.7 °C 62.1 °F /  16.7 °C 29.7in /  1006.4hPa West 0.9mph /  1.4km/h 4mph /  6.4km/h 83% 0in /  0.0mm 0 W/m2
22:18 67.5 °F /  19.7 °C 62.1 °F /  16.7 °C 29.7in /  1006.4hPa NW 2mph /  3.2km/h 2mph /  3.2km/h 83% 0in /  0.0mm 0 W/m2
22:23 67.3 °F /  19.6 °C 61.9 °F /  16.6 °C 29.7in /  1006.4hPa WNW 2mph /  3.2km/h 2mph /  3.2km/h 83% 0in /  0.0mm 0 W/m2
22:28 67.3 °F /  19.6 °C 61.9 °F /  16.6 °C 29.7in /  1006.4hPa NW 0.9mph /  1.4km/h 2mph /  3.2km/h 83% 0in /  0.0mm 0 W/m2
22:33 67.3 °F /  19.6 °C 61.9 °F /  16.6 °C 29.7in /  1006.4hPa Calm   2mph /  3.2km/h 83% 0in /  0.0mm 0 W/m2
22:38 67.1 °F /  19.5 °C 61.7 °F /  16.5 °C 29.7in /  1006.4hPa Calm   3mph /  4.8km/h 83% 0in /  0.0mm 0 W/m2
22:43 66.9 °F /  19.4 °C 61.5 °F /  16.4 °C 29.7in /  1006.4hPa West 2mph /  3.2km/h 3mph /  4.8km/h 83% 0in /  0.0mm 0 W/m2
22:48 66.9 °F /  19.4 °C 61.5 °F /  16.4 °C 29.7in /  1006.4hPa West 2mph /  3.2km/h 2mph /  3.2km/h 83% 0in /  0.0mm 0 W/m2
22:53 66.7 °F /  19.3 °C 61.7 °F /  16.5 °C 29.7in /  1006.8hPa NW 2mph /  3.2km/h 3mph /  4.8km/h 84% 0in /  0.0mm 0 W/m2
22:58 66.7 °F /  19.3 °C 61.7 °F /  16.5 °C 29.7in /  1006.8hPa Calm   1mph /  1.6km/h 84% 0in /  0.0mm 0 W/m2
23:03 66.6 °F /  19.2 °C 61.5 °F /  16.4 °C 29.7in /  1006.8hPa Calm   2mph /  3.2km/h 84% 0in /  0.0mm 0 W/m2
23:08 66.4 °F /  19.1 °C 61.3 °F /  16.3 °C 29.7in /  1006.8hPa NW 0.9mph /  1.4km/h 1mph /  1.6km/h 84% 0in /  0.0mm 0 W/m2
23:13 66.4 °F /  19.1 °C 61.3 °F /  16.3 °C 29.7in /  1006.8hPa Calm     84% 0in /  0.0mm 0 W/m2
23:18 66 °F /  18.9 °C 61 °F /  16.1 °C 29.7in /  1006.8hPa Calm   2mph /  3.2km/h 84% 0in /  0.0mm 0 W/m2
23:23 65.8 °F /  18.8 °C 60.8 °F /  16 °C 29.7in /  1006.8hPa NNE 0.9mph /  1.4km/h 1mph /  1.6km/h 84% 0in /  0.0mm 0 W/m2
23:28 65.7 °F /  18.7 °C 61 °F /  16.1 °C 29.7in /  1006.8hPa Calm   1mph /  1.6km/h 85% 0in /  0.0mm 0 W/m2
23:33 65.7 °F /  18.7 °C 61 °F /  16.1 °C 29.7in /  1006.8hPa SSW 0.9mph /  1.4km/h 1mph /  1.6km/h 85% 0in /  0.0mm 0 W/m2
23:38 65.5 °F /  18.6 °C 60.8 °F /  16 °C 29.7in /  1006.8hPa Calm   2mph /  3.2km/h 85% 0in /  0.0mm 0 W/m2
23:43 65.1 °F /  18.4 °C 60.8 °F /  16 °C 29.7in /  1006.8hPa Calm   2mph /  3.2km/h 86% 0in /  0.0mm 0 W/m2
23:48 64.9 °F /  18.3 °C 60.6 °F /  15.9 °C 29.7in /  1006.8hPa Calm   2mph /  3.2km/h 86% 0in /  0.0mm 0 W/m2
23:53 64.9 °F /  18.3 °C 60.6 °F /  15.9 °C 29.7in /  1006.8hPa Calm   1mph /  1.6km/h 86% 0in /  0.0mm 0 W/m2
23:58 64.8 °F /  18.2 °C 60.4 °F /  15.8 °C 29.7in /  1006.8hPa Calm     86% 0in /  0.0mm 0 W/m2
Juneau County Weather
Compliments of Weather Underground - 4 mb